sensor_id;sensor_type;location;lat;lon;timestamp;temperature;humidity
13123;DHT22;6627;50.920;12.050;2022-11-24T00:01:02;1.30;99.90
13123;DHT22;6627;50.920;12.050;2022-11-24T00:03:32;1.40;99.90
13123;DHT22;6627;50.920;12.050;2022-11-24T00:06:04;1.50;99.90
13123;DHT22;6627;50.920;12.050;2022-11-24T00:08:32;1.50;99.90
13123;DHT22;6627;50.920;12.050;2022-11-24T00:11:05;1.50;99.90
13123;DHT22;6627;50.920;12.050;2022-11-24T00:13:35;1.50;99.90
13123;DHT22;6627;50.920;12.050;2022-11-24T00:16:06;1.60;99.90
13123;DHT22;6627;50.920;12.050;2022-11-24T00:18:37;1.70;99.90
13123;DHT22;6627;50.920;12.050;2022-11-24T00:21:05;1.70;99.90
13123;DHT22;6627;50.920;12.050;2022-11-24T00:23:33;1.70;99.90
13123;DHT22;6627;50.920;12.050;2022-11-24T00:26:05;1.80;99.90
13123;DHT22;6627;50.920;12.050;2022-11-24T00:28:34;1.80;99.90
13123;DHT22;6627;50.920;12.050;2022-11-24T00:31:04;1.80;99.90
13123;DHT22;6627;50.920;12.050;2022-11-24T00:33:41;1.90;99.90
13123;DHT22;6627;50.920;12.050;2022-11-24T00:36:09;2.00;99.90
13123;DHT22;6627;50.920;12.050;2022-11-24T00:38:36;2.00;99.90
13123;DHT22;6627;50.920;12.050;2022-11-24T00:41:04;2.10;99.90
13123;DHT22;6627;50.920;12.050;2022-11-24T00:43:32;2.10;99.90
13123;DHT22;6627;50.920;12.050;2022-11-24T00:46:00;2.20;99.90
13123;DHT22;6627;50.920;12.050;2022-11-24T00:48:29;2.20;99.90
13123;DHT22;6627;50.920;12.050;2022-11-24T00:50:59;2.20;99.90
13123;DHT22;6627;50.920;12.050;2022-11-24T00:53:29;2.30;99.90
13123;DHT22;6627;50.920;12.050;2022-11-24T00:55:57;2.30;99.90
13123;DHT22;6627;50.920;12.050;2022-11-24T00:58:24;2.30;99.90
13123;DHT22;6627;50.920;12.050;2022-11-24T01:00:52;2.40;99.90
13123;DHT22;6627;50.920;12.050;2022-11-24T01:03:22;2.40;99.90
13123;DHT22;6627;50.920;12.050;2022-11-24T01:05:50;2.50;99.90
13123;DHT22;6627;50.920;12.050;2022-11-24T01:08:19;2.50;99.90
13123;DHT22;6627;50.920;12.050;2022-11-24T01:10:49;2.50;99.90
13123;DHT22;6627;50.920;12.050;2022-11-24T01:13:24;2.60;99.90
13123;DHT22;6627;50.920;12.050;2022-11-24T01:15:55;2.60;99.90
13123;DHT22;6627;50.920;12.050;2022-11-24T01:18:23;2.60;99.90
13123;DHT22;6627;50.920;12.050;2022-11-24T01:20:51;2.60;99.90
13123;DHT22;6627;50.920;12.050;2022-11-24T01:23:21;2.70;99.90
13123;DHT22;6627;50.920;12.050;2022-11-24T01:25:49;2.70;99.90
13123;DHT22;6627;50.920;12.050;2022-11-24T01:28:16;2.70;99.90
13123;DHT22;6627;50.920;12.050;2022-11-24T01:30:45;2.70;99.90
13123;DHT22;6627;50.920;12.050;2022-11-24T01:33:32;2.70;99.90
13123;DHT22;6627;50.920;12.050;2022-11-24T01:36:07;2.80;99.90
13123;DHT22;6627;50.920;12.050;2022-11-24T01:38:37;2.80;99.90
13123;DHT22;6627;50.920;12.050;2022-11-24T01:41:07;2.80;99.90
13123;DHT22;6627;50.920;12.050;2022-11-24T01:43:51;2.90;99.90
13123;DHT22;6627;50.920;12.050;2022-11-24T01:46:24;2.80;99.90
13123;DHT22;6627;50.920;12.050;2022-11-24T01:49:00;2.90;99.90
13123;DHT22;6627;50.920;12.050;2022-11-24T01:51:34;2.90;99.90
13123;DHT22;6627;50.920;12.050;2022-11-24T01:54:17;2.90;99.90
13123;DHT22;6627;50.920;12.050;2022-11-24T01:56:57;2.90;99.90
13123;DHT22;6627;50.920;12.050;2022-11-24T01:59:29;2.90;99.90
13123;DHT22;6627;50.920;12.050;2022-11-24T02:01:58;2.90;99.90
13123;DHT22;6627;50.920;12.050;2022-11-24T02:04:32;2.90;99.90
13123;DHT22;6627;50.920;12.050;2022-11-24T02:07:06;2.90;99.90
13123;DHT22;6627;50.920;12.050;2022-11-24T02:09:41;2.90;99.90
13123;DHT22;6627;50.920;12.050;2022-11-24T02:12:14;2.90;99.90
13123;DHT22;6627;50.920;12.050;2022-11-24T02:14:42;3.00;99.90
13123;DHT22;6627;50.920;12.050;2022-11-24T02:17:12;3.00;99.90
13123;DHT22;6627;50.920;12.050;2022-11-24T02:19:50;3.00;99.90
13123;DHT22;6627;50.920;12.050;2022-11-24T02:22:35;3.10;99.90
13123;DHT22;6627;50.920;12.050;2022-11-24T02:25:22;3.20;99.90
13123;DHT22;6627;50.920;12.050;2022-11-24T02:27:59;3.00;99.90
13123;DHT22;6627;50.920;12.050;2022-11-24T02:30:34;3.10;99.90
13123;DHT22;6627;50.920;12.050;2022-11-24T02:33:03;3.20;99.90
13123;DHT22;6627;50.920;12.050;2022-11-24T02:35:32;3.20;99.90
13123;DHT22;6627;50.920;12.050;2022-11-24T02:38:03;3.20;99.90
13123;DHT22;6627;50.920;12.050;2022-11-24T02:40:39;3.30;99.90
13123;DHT22;6627;50.920;12.050;2022-11-24T02:43:19;3.30;99.90
13123;DHT22;6627;50.920;12.050;2022-11-24T02:46:08;3.30;99.90
13123;DHT22;6627;50.920;12.050;2022-11-24T02:48:56;3.40;99.90
13123;DHT22;6627;50.920;12.050;2022-11-24T02:51:43;3.40;99.90
13123;DHT22;6627;50.920;12.050;2022-11-24T02:54:30;3.40;99.90
13123;DHT22;6627;50.920;12.050;2022-11-24T02:57:17;3.40;99.90
13123;DHT22;6627;50.920;12.050;2022-11-24T02:59:47;3.40;99.90
13123;DHT22;6627;50.920;12.050;2022-11-24T03:02:16;3.40;99.90
13123;DHT22;6627;50.920;12.050;2022-11-24T03:04:43;3.40;99.90
13123;DHT22;6627;50.920;12.050;2022-11-24T03:07:10;3.40;99.90
13123;DHT22;6627;50.920;12.050;2022-11-24T03:09:37;3.50;99.90
13123;DHT22;6627;50.920;12.050;2022-11-24T03:12:05;3.70;99.90
13123;DHT22;6627;50.920;12.050;2022-11-24T03:14:32;3.60;99.90
13123;DHT22;6627;50.920;12.050;2022-11-24T03:17:01;3.70;99.90
13123;DHT22;6627;50.920;12.050;2022-11-24T03:19:28;3.60;99.90
13123;DHT22;6627;50.920;12.050;2022-11-24T03:21:56;3.60;99.90
13123;DHT22;6627;50.920;12.050;2022-11-24T03:24:23;3.70;99.90
13123;DHT22;6627;50.920;12.050;2022-11-24T03:26:51;3.70;99.90
13123;DHT22;6627;50.920;12.050;2022-11-24T03:29:18;3.70;99.90
13123;DHT22;6627;50.920;12.050;2022-11-24T03:31:45;3.70;99.90
13123;DHT22;6627;50.920;12.050;2022-11-24T03:34:14;3.70;99.90
13123;DHT22;6627;50.920;12.050;2022-11-24T03:36:41;3.80;99.90
13123;DHT22;6627;50.920;12.050;2022-11-24T03:39:08;3.80;99.90
13123;DHT22;6627;50.920;12.050;2022-11-24T03:41:36;3.80;99.90
13123;DHT22;6627;50.920;12.050;2022-11-24T03:44:04;3.80;99.90
13123;DHT22;6627;50.920;12.050;2022-11-24T03:46:31;3.80;99.90
13123;DHT22;6627;50.920;12.050;2022-11-24T03:48:58;3.90;99.90
13123;DHT22;6627;50.920;12.050;2022-11-24T03:51:27;3.90;99.90
13123;DHT22;6627;50.920;12.050;2022-11-24T03:53:55;3.90;99.90
13123;DHT22;6627;50.920;12.050;2022-11-24T03:56:22;3.90;99.90
13123;DHT22;6627;50.920;12.050;2022-11-24T03:58:49;3.90;99.90
13123;DHT22;6627;50.920;12.050;2022-11-24T04:01:17;3.90;99.90
13123;DHT22;6627;50.920;12.050;2022-11-24T04:03:44;3.90;99.90
13123;DHT22;6627;50.920;12.050;2022-11-24T04:06:11;3.90;99.90
13123;DHT22;6627;50.920;12.050;2022-11-24T04:08:40;3.90;99.90
13123;DHT22;6627;50.920;12.050;2022-11-24T04:11:08;4.00;99.90
13123;DHT22;6627;50.920;12.050;2022-11-24T04:13:55;4.00;99.90
13123;DHT22;6627;50.920;12.050;2022-11-24T04:16:21;4.00;99.90
13123;DHT22;6627;50.920;12.050;2022-11-24T04:18:50;4.10;99.90
13123;DHT22;6627;50.920;12.050;2022-11-24T04:21:19;4.10;99.90
13123;DHT22;6627;50.920;12.050;2022-11-24T04:23:48;4.10;99.90
13123;DHT22;6627;50.920;12.050;2022-11-24T04:26:17;4.20;99.90
13123;DHT22;6627;50.920;12.050;2022-11-24T04:28:45;4.20;99.90
13123;DHT22;6627;50.920;12.050;2022-11-24T04:31:12;4.20;99.90
13123;DHT22;6627;50.920;12.050;2022-11-24T04:33:40;4.20;99.90
13123;DHT22;6627;50.920;12.050;2022-11-24T04:36:07;4.30;99.90
13123;DHT22;6627;50.920;12.050;2022-11-24T04:38:35;4.20;99.90
13123;DHT22;6627;50.920;12.050;2022-11-24T04:41:04;4.30;99.90
13123;DHT22;6627;50.920;12.050;2022-11-24T04:43:32;4.30;99.90
13123;DHT22;6627;50.920;12.050;2022-11-24T04:46:00;4.30;99.90
13123;DHT22;6627;50.920;12.050;2022-11-24T04:48:28;4.30;99.90
13123;DHT22;6627;50.920;12.050;2022-11-24T04:50:55;4.40;99.90
13123;DHT22;6627;50.920;12.050;2022-11-24T04:53:22;4.30;99.90
13123;DHT22;6627;50.920;12.050;2022-11-24T04:55:49;4.30;99.90
13123;DHT22;6627;50.920;12.050;2022-11-24T04:58:18;4.30;99.90
13123;DHT22;6627;50.920;12.050;2022-11-24T05:00:45;4.40;99.90
13123;DHT22;6627;50.920;12.050;2022-11-24T05:03:12;4.30;99.90
13123;DHT22;6627;50.920;12.050;2022-11-24T05:05:40;4.30;99.90
13123;DHT22;6627;50.920;12.050;2022-11-24T05:08:07;4.20;99.90
13123;DHT22;6627;50.920;12.050;2022-11-24T05:10:35;4.20;99.90
13123;DHT22;6627;50.920;12.050;2022-11-24T05:13:03;4.20;99.90
13123;DHT22;6627;50.920;12.050;2022-11-24T05:15:33;4.20;99.90
13123;DHT22;6627;50.920;12.050;2022-11-24T05:18:03;4.20;99.90
13123;DHT22;6627;50.920;12.050;2022-11-24T05:20:31;4.10;99.90
13123;DHT22;6627;50.920;12.050;2022-11-24T05:23:00;4.20;99.90
13123;DHT22;6627;50.920;12.050;2022-11-24T05:25:29;4.20;99.90
13123;DHT22;6627;50.920;12.050;2022-11-24T05:27:58;4.20;99.90
13123;DHT22;6627;50.920;12.050;2022-11-24T05:30:27;4.20;99.90
13123;DHT22;6627;50.920;12.050;2022-11-24T05:32:55;4.20;99.90
13123;DHT22;6627;50.920;12.050;2022-11-24T05:35:23;4.30;99.90
13123;DHT22;6627;50.920;12.050;2022-11-24T05:37:50;4.40;99.90
13123;DHT22;6627;50.920;12.050;2022-11-24T05:40:18;4.40;99.90
13123;DHT22;6627;50.920;12.050;2022-11-24T05:42:45;4.40;99.90
13123;DHT22;6627;50.920;12.050;2022-11-24T05:45:14;4.40;99.90
13123;DHT22;6627;50.920;12.050;2022-11-24T05:47:44;4.50;99.90
13123;DHT22;6627;50.920;12.050;2022-11-24T05:50:15;4.50;99.90
13123;DHT22;6627;50.920;12.050;2022-11-24T05:52:44;4.50;99.90
13123;DHT22;6627;50.920;12.050;2022-11-24T05:55:13;4.50;99.90
13123;DHT22;6627;50.920;12.050;2022-11-24T05:57:41;4.60;99.90
13123;DHT22;6627;50.920;12.050;2022-11-24T06:00:10;4.60;99.90
13123;DHT22;6627;50.920;12.050;2022-11-24T06:02:40;4.60;99.90
13123;DHT22;6627;50.920;12.050;2022-11-24T06:05:07;4.60;99.90
13123;DHT22;6627;50.920;12.050;2022-11-24T06:07:36;4.60;99.90
13123;DHT22;6627;50.920;12.050;2022-11-24T06:10:04;4.60;99.90
13123;DHT22;6627;50.920;12.050;2022-11-24T06:12:31;4.60;99.90
13123;DHT22;6627;50.920;12.050;2022-11-24T06:14:58;4.60;99.90
13123;DHT22;6627;50.920;12.050;2022-11-24T06:17:26;4.60;99.90
13123;DHT22;6627;50.920;12.050;2022-11-24T06:19:54;4.60;99.90
13123;DHT22;6627;50.920;12.050;2022-11-24T06:22:22;4.70;99.90
13123;DHT22;6627;50.920;12.050;2022-11-24T06:24:51;4.70;99.90
13123;DHT22;6627;50.920;12.050;2022-11-24T06:27:18;4.70;99.90
13123;DHT22;6627;50.920;12.050;2022-11-24T06:29:45;4.70;99.90
13123;DHT22;6627;50.920;12.050;2022-11-24T06:32:12;4.70;99.90
13123;DHT22;6627;50.920;12.050;2022-11-24T06:34:41;4.70;99.90
13123;DHT22;6627;50.920;12.050;2022-11-24T06:37:08;4.70;99.90
13123;DHT22;6627;50.920;12.050;2022-11-24T06:39:36;4.60;99.90
13123;DHT22;6627;50.920;12.050;2022-11-24T06:42:05;4.70;99.90
13123;DHT22;6627;50.920;12.050;2022-11-24T06:44:32;4.60;99.90
13123;DHT22;6627;50.920;12.050;2022-11-24T06:46:59;4.60;99.90
13123;DHT22;6627;50.920;12.050;2022-11-24T06:49:26;4.60;99.90
13123;DHT22;6627;50.920;12.050;2022-11-24T06:51:54;4.60;99.90
13123;DHT22;6627;50.920;12.050;2022-11-24T06:54:21;4.50;99.90
13123;DHT22;6627;50.920;12.050;2022-11-24T06:56:49;4.50;99.90
13123;DHT22;6627;50.920;12.050;2022-11-24T06:59:22;4.50;99.90
13123;DHT22;6627;50.920;12.050;2022-11-24T07:01:51;4.50;99.90
13123;DHT22;6627;50.920;12.050;2022-11-24T07:04:19;4.50;99.90
13123;DHT22;6627;50.920;12.050;2022-11-24T07:06:46;4.60;99.90
13123;DHT22;6627;50.920;12.050;2022-11-24T07:09:14;4.60;99.90
13123;DHT22;6627;50.920;12.050;2022-11-24T07:11:41;4.60;99.90
13123;DHT22;6627;50.920;12.050;2022-11-24T07:14:09;4.60;99.90
13123;DHT22;6627;50.920;12.050;2022-11-24T07:16:38;4.70;99.90
13123;DHT22;6627;50.920;12.050;2022-11-24T07:19:05;4.70;99.90
13123;DHT22;6627;50.920;12.050;2022-11-24T07:21:34;4.70;99.90
13123;DHT22;6627;50.920;12.050;2022-11-24T07:24:02;4.70;99.90
13123;DHT22;6627;50.920;12.050;2022-11-24T07:26:29;4.80;99.90
13123;DHT22;6627;50.920;12.050;2022-11-24T07:29:02;4.80;99.90
13123;DHT22;6627;50.920;12.050;2022-11-24T07:31:30;4.80;99.90
13123;DHT22;6627;50.920;12.050;2022-11-24T07:33:59;4.80;99.90
13123;DHT22;6627;50.920;12.050;2022-11-24T07:36:27;4.80;99.90
13123;DHT22;6627;50.920;12.050;2022-11-24T07:38:54;4.90;99.90
13123;DHT22;6627;50.920;12.050;2022-11-24T07:41:22;4.90;99.90
13123;DHT22;6627;50.920;12.050;2022-11-24T07:43:50;4.90;99.90
13123;DHT22;6627;50.920;12.050;2022-11-24T07:46:18;4.90;99.90
13123;DHT22;6627;50.920;12.050;2022-11-24T07:48:46;5.00;99.90
13123;DHT22;6627;50.920;12.050;2022-11-24T07:51:15;5.00;99.90
13123;DHT22;6627;50.920;12.050;2022-11-24T07:53:43;5.00;99.90
13123;DHT22;6627;50.920;12.050;2022-11-24T07:56:11;5.00;99.90
13123;DHT22;6627;50.920;12.050;2022-11-24T07:58:38;5.00;99.90
13123;DHT22;6627;50.920;12.050;2022-11-24T08:01:11;5.00;99.90
13123;DHT22;6627;50.920;12.050;2022-11-24T08:03:41;5.10;99.90
13123;DHT22;6627;50.920;12.050;2022-11-24T08:06:10;5.10;99.90
13123;DHT22;6627;50.920;12.050;2022-11-24T08:08:39;5.10;99.90
13123;DHT22;6627;50.920;12.050;2022-11-24T08:11:08;5.20;99.90
13123;DHT22;6627;50.920;12.050;2022-11-24T08:13:37;5.20;99.90
13123;DHT22;6627;50.920;12.050;2022-11-24T08:16:06;5.30;99.90
13123;DHT22;6627;50.920;12.050;2022-11-24T08:18:36;5.30;99.90
13123;DHT22;6627;50.920;12.050;2022-11-24T08:21:05;5.30;99.90
13123;DHT22;6627;50.920;12.050;2022-11-24T08:23:40;5.40;99.90
13123;DHT22;6627;50.920;12.050;2022-11-24T08:26:10;5.40;99.90
13123;DHT22;6627;50.920;12.050;2022-11-24T08:28:41;5.50;99.90
13123;DHT22;6627;50.920;12.050;2022-11-24T08:31:12;5.50;99.90
13123;DHT22;6627;50.920;12.050;2022-11-24T08:33:41;5.50;99.90
13123;DHT22;6627;50.920;12.050;2022-11-24T08:36:11;5.50;99.90
13123;DHT22;6627;50.920;12.050;2022-11-24T08:38:41;5.60;99.90
13123;DHT22;6627;50.920;12.050;2022-11-24T08:41:11;5.70;99.90
13123;DHT22;6627;50.920;12.050;2022-11-24T08:43:40;5.70;99.90
13123;DHT22;6627;50.920;12.050;2022-11-24T08:46:10;5.70;99.90
13123;DHT22;6627;50.920;12.050;2022-11-24T08:48:39;5.80;99.90
13123;DHT22;6627;50.920;12.050;2022-11-24T08:51:08;5.80;99.90
13123;DHT22;6627;50.920;12.050;2022-11-24T08:53:37;5.80;99.90
13123;DHT22;6627;50.920;12.050;2022-11-24T08:56:08;5.80;99.90
13123;DHT22;6627;50.920;12.050;2022-11-24T08:58:37;5.80;99.90
13123;DHT22;6627;50.920;12.050;2022-11-24T09:01:06;5.90;99.90
13123;DHT22;6627;50.920;12.050;2022-11-24T09:03:35;5.90;99.90
13123;DHT22;6627;50.920;12.050;2022-11-24T09:06:04;6.00;99.90
13123;DHT22;6627;50.920;12.050;2022-11-24T09:08:33;6.00;99.90
13123;DHT22;6627;50.920;12.050;2022-11-24T09:11:01;6.00;99.90
13123;DHT22;6627;50.920;12.050;2022-11-24T09:13:32;6.00;99.90
13123;DHT22;6627;50.920;12.050;2022-11-24T09:16:02;6.10;99.90
13123;DHT22;6627;50.920;12.050;2022-11-24T09:18:34;6.10;99.90
13123;DHT22;6627;50.920;12.050;2022-11-24T09:21:06;6.10;99.90
13123;DHT22;6627;50.920;12.050;2022-11-24T09:23:34;6.20;99.90
13123;DHT22;6627;50.920;12.050;2022-11-24T09:26:03;6.20;99.90
13123;DHT22;6627;50.920;12.050;2022-11-24T09:28:33;6.30;99.90
13123;DHT22;6627;50.920;12.050;2022-11-24T09:31:01;6.30;99.90
13123;DHT22;6627;50.920;12.050;2022-11-24T09:33:30;6.40;99.90
13123;DHT22;6627;50.920;12.050;2022-11-24T09:35:58;6.40;99.90
13123;DHT22;6627;50.920;12.050;2022-11-24T09:38:27;6.50;99.90
13123;DHT22;6627;50.920;12.050;2022-11-24T09:40:55;6.50;99.90
13123;DHT22;6627;50.920;12.050;2022-11-24T09:43:38;6.60;99.90
13123;DHT22;6627;50.920;12.050;2022-11-24T09:46:19;6.60;99.90
13123;DHT22;6627;50.920;12.050;2022-11-24T09:48:56;6.70;99.90
13123;DHT22;6627;50.920;12.050;2022-11-24T09:51:27;6.70;99.90
13123;DHT22;6627;50.920;12.050;2022-11-24T09:54:01;6.80;99.90
13123;DHT22;6627;50.920;12.050;2022-11-24T09:56:34;6.90;99.90
13123;DHT22;6627;50.920;12.050;2022-11-24T09:59:12;7.00;99.90
13123;DHT22;6627;50.920;12.050;2022-11-24T10:01:43;7.00;99.90
13123;DHT22;6627;50.920;12.050;2022-11-24T10:04:15;7.20;99.90
13123;DHT22;6627;50.920;12.050;2022-11-24T10:15:20;7.70;99.90
13123;DHT22;6627;50.920;12.050;2022-11-24T10:18:16;7.80;99.90
13123;DHT22;6627;50.920;12.050;2022-11-24T10:21:04;8.00;99.90
13123;DHT22;6627;50.920;12.050;2022-11-24T10:23:58;8.20;99.90
13123;DHT22;6627;50.920;12.050;2022-11-24T10:26:36;8.50;99.90
13123;DHT22;6627;50.920;12.050;2022-11-24T10:29:15;8.60;99.90
13123;DHT22;6627;50.920;12.050;2022-11-24T10:31:52;8.80;99.90
13123;DHT22;6627;50.920;12.050;2022-11-24T10:34:27;8.80;99.90
13123;DHT22;6627;50.920;12.050;2022-11-24T10:37:01;9.10;99.90
13123;DHT22;6627;50.920;12.050;2022-11-24T10:39:47;9.30;99.90
13123;DHT22;6627;50.920;12.050;2022-11-24T10:42:25;9.30;99.90
13123;DHT22;6627;50.920;12.050;2022-11-24T10:45:00;9.50;99.90
13123;DHT22;6627;50.920;12.050;2022-11-24T10:47:30;9.60;99.90
13123;DHT22;6627;50.920;12.050;2022-11-24T10:50:00;9.70;99.90
13123;DHT22;6627;50.920;12.050;2022-11-24T10:52:32;9.80;99.90
13123;DHT22;6627;50.920;12.050;2022-11-24T10:55:06;9.90;99.90
13123;DHT22;6627;50.920;12.050;2022-11-24T10:57:35;10.00;99.90
13123;DHT22;6627;50.920;12.050;2022-11-24T11:00:28;10.00;99.90
13123;DHT22;6627;50.920;12.050;2022-11-24T11:03:20;10.20;99.90
13123;DHT22;6627;50.920;12.050;2022-11-24T11:05:51;10.30;99.90
13123;DHT22;6627;50.920;12.050;2022-11-24T11:08:23;10.30;99.90
13123;DHT22;6627;50.920;12.050;2022-11-24T11:11:17;10.30;99.90
13123;DHT22;6627;50.920;12.050;2022-11-24T11:13:52;10.40;99.90
13123;DHT22;6627;50.920;12.050;2022-11-24T11:16:29;10.40;99.90
13123;DHT22;6627;50.920;12.050;2022-11-24T11:19:03;10.60;99.90
13123;DHT22;6627;50.920;12.050;2022-11-24T11:21:34;10.60;99.90
13123;DHT22;6627;50.920;12.050;2022-11-24T11:24:10;10.60;99.90
13123;DHT22;6627;50.920;12.050;2022-11-24T11:26:43;10.60;99.90
13123;DHT22;6627;50.920;12.050;2022-11-24T11:29:16;10.60;99.90
13123;DHT22;6627;50.920;12.050;2022-11-24T11:31:58;10.70;99.90
13123;DHT22;6627;50.920;12.050;2022-11-24T11:34:32;10.70;99.90
13123;DHT22;6627;50.920;12.050;2022-11-24T11:37:03;10.60;99.90
13123;DHT22;6627;50.920;12.050;2022-11-24T11:39:32;10.60;99.90
13123;DHT22;6627;50.920;12.050;2022-11-24T11:44:47;10.60;99.90
13123;DHT22;6627;50.920;12.050;2022-11-24T11:47:24;10.50;99.90
13123;DHT22;6627;50.920;12.050;2022-11-24T11:49:57;10.50;99.90
13123;DHT22;6627;50.920;12.050;2022-11-24T11:52:38;10.50;99.90
13123;DHT22;6627;50.920;12.050;2022-11-24T11:55:31;10.50;99.90
13123;DHT22;6627;50.920;12.050;2022-11-24T12:00:56;10.50;99.90
13123;DHT22;6627;50.920;12.050;2022-11-24T12:03:49;10.50;99.90
13123;DHT22;6627;50.920;12.050;2022-11-24T12:06:41;10.50;99.90
13123;DHT22;6627;50.920;12.050;2022-11-24T12:09:34;10.50;99.90
13123;DHT22;6627;50.920;12.050;2022-11-24T12:15:32;10.50;99.90
13123;DHT22;6627;50.920;12.050;2022-11-24T12:18:12;10.60;99.90
13123;DHT22;6627;50.920;12.050;2022-11-24T12:20:58;10.50;99.90
13123;DHT22;6627;50.920;12.050;2022-11-24T12:23:43;10.40;99.90
13123;DHT22;6627;50.920;12.050;2022-11-24T12:26:29;10.40;99.90
13123;DHT22;6627;50.920;12.050;2022-11-24T12:29:24;10.40;99.90
13123;DHT22;6627;50.920;12.050;2022-11-24T12:32:10;10.50;99.90
13123;DHT22;6627;50.920;12.050;2022-11-24T12:40:26;10.40;99.90
13123;DHT22;6627;50.920;12.050;2022-11-24T12:45:46;10.40;99.90
13123;DHT22;6627;50.920;12.050;2022-11-24T12:56:13;10.50;99.90
13123;DHT22;6627;50.920;12.050;2022-11-24T12:58:49;10.50;99.90
13123;DHT22;6627;50.920;12.050;2022-11-24T13:01:27;10.90;99.90
13123;DHT22;6627;50.920;12.050;2022-11-24T13:04:10;10.40;99.90
13123;DHT22;6627;50.920;12.050;2022-11-24T13:06:58;10.40;99.90
13123;DHT22;6627;50.920;12.050;2022-11-24T13:09:30;10.50;99.90
13123;DHT22;6627;50.920;12.050;2022-11-24T13:12:11;10.40;99.90
13123;DHT22;6627;50.920;12.050;2022-11-24T13:14:42;10.40;99.90
13123;DHT22;6627;50.920;12.050;2022-11-24T13:17:28;10.40;99.90
13123;DHT22;6627;50.920;12.050;2022-11-24T13:20:14;10.40;99.90
13123;DHT22;6627;50.920;12.050;2022-11-24T13:22:47;10.40;99.90
13123;DHT22;6627;50.920;12.050;2022-11-24T13:25:20;10.40;99.90
13123;DHT22;6627;50.920;12.050;2022-11-24T13:27:51;10.40;99.90
13123;DHT22;6627;50.920;12.050;2022-11-24T13:30:54;10.50;99.90
13123;DHT22;6627;50.920;12.050;2022-11-24T13:33:37;10.50;99.90
13123;DHT22;6627;50.920;12.050;2022-11-24T13:36:33;10.60;99.90
13123;DHT22;6627;50.920;12.050;2022-11-24T13:39:48;10.70;99.90
13123;DHT22;6627;50.920;12.050;2022-11-24T13:42:17;10.80;99.90
13123;DHT22;6627;50.920;12.050;2022-11-24T13:44:52;10.80;99.90
13123;DHT22;6627;50.920;12.050;2022-11-24T13:47:36;10.80;99.90
13123;DHT22;6627;50.920;12.050;2022-11-24T13:50:11;10.80;99.90
13123;DHT22;6627;50.920;12.050;2022-11-24T13:52:48;10.90;99.90
13123;DHT22;6627;50.920;12.050;2022-11-24T13:55:35;10.80;99.90
13123;DHT22;6627;50.920;12.050;2022-11-24T13:58:32;10.80;99.90
13123;DHT22;6627;50.920;12.050;2022-11-24T14:01:11;10.80;99.90
13123;DHT22;6627;50.920;12.050;2022-11-24T14:03:48;10.70;99.90
13123;DHT22;6627;50.920;12.050;2022-11-24T14:06:29;10.70;99.90
13123;DHT22;6627;50.920;12.050;2022-11-24T14:09:06;10.70;99.90
13123;DHT22;6627;50.920;12.050;2022-11-24T14:11:58;10.60;99.90
13123;DHT22;6627;50.920;12.050;2022-11-24T14:17:12;10.70;99.90
13123;DHT22;6627;50.920;12.050;2022-11-24T14:19:43;10.60;99.90
13123;DHT22;6627;50.920;12.050;2022-11-24T14:22:15;10.60;99.90
13123;DHT22;6627;50.920;12.050;2022-11-24T14:24:50;10.50;99.90
13123;DHT22;6627;50.920;12.050;2022-11-24T14:29:56;10.40;99.90
13123;DHT22;6627;50.920;12.050;2022-11-24T14:32:25;10.30;99.90
13123;DHT22;6627;50.920;12.050;2022-11-24T14:34:52;10.30;99.90
13123;DHT22;6627;50.920;12.050;2022-11-24T14:37:20;10.20;99.90
13123;DHT22;6627;50.920;12.050;2022-11-24T14:39:47;10.20;99.90
13123;DHT22;6627;50.920;12.050;2022-11-24T14:42:17;10.20;99.90
13123;DHT22;6627;50.920;12.050;2022-11-24T14:44:50;10.10;99.90
13123;DHT22;6627;50.920;12.050;2022-11-24T14:47:26;10.10;99.90
13123;DHT22;6627;50.920;12.050;2022-11-24T14:49:57;10.00;99.90
13123;DHT22;6627;50.920;12.050;2022-11-24T14:52:33;9.90;99.90
13123;DHT22;6627;50.920;12.050;2022-11-24T14:55:01;9.90;99.90
13123;DHT22;6627;50.920;12.050;2022-11-24T14:57:30;9.90;99.90
13123;DHT22;6627;50.920;12.050;2022-11-24T15:17:59;9.60;99.90
13123;DHT22;6627;50.920;12.050;2022-11-24T15:25:52;9.30;99.90
13123;DHT22;6627;50.920;12.050;2022-11-24T15:33:21;9.20;99.90
13123;DHT22;6627;50.920;12.050;2022-11-24T15:40:47;9.20;99.90
13123;DHT22;6627;50.920;12.050;2022-11-24T15:43:26;9.20;99.90
13123;DHT22;6627;50.920;12.050;2022-11-24T15:45:57;9.10;99.90
13123;DHT22;6627;50.920;12.050;2022-11-24T15:48:26;9.10;99.90
13123;DHT22;6627;50.920;12.050;2022-11-24T15:50:55;9.10;99.90
13123;DHT22;6627;50.920;12.050;2022-11-24T15:53:28;9.00;99.90
13123;DHT22;6627;50.920;12.050;2022-11-24T15:55:59;9.00;99.90
13123;DHT22;6627;50.920;12.050;2022-11-24T15:58:28;9.00;99.90
13123;DHT22;6627;50.920;12.050;2022-11-24T16:00:56;9.00;99.90
13123;DHT22;6627;50.920;12.050;2022-11-24T16:03:23;8.90;99.90
13123;DHT22;6627;50.920;12.050;2022-11-24T16:05:52;8.70;99.90
13123;DHT22;6627;50.920;12.050;2022-11-24T16:08:21;8.80;99.90
13123;DHT22;6627;50.920;12.050;2022-11-24T16:10:48;8.70;99.90
13123;DHT22;6627;50.920;12.050;2022-11-24T16:13:16;8.60;99.90
13123;DHT22;6627;50.920;12.050;2022-11-24T16:15:44;8.50;99.90
13123;DHT22;6627;50.920;12.050;2022-11-24T16:18:13;8.50;99.90
13123;DHT22;6627;50.920;12.050;2022-11-24T16:23:08;8.40;99.90
13123;DHT22;6627;50.920;12.050;2022-11-24T16:25:36;8.50;99.90
13123;DHT22;6627;50.920;12.050;2022-11-24T16:28:03;8.50;99.90
13123;DHT22;6627;50.920;12.050;2022-11-24T16:30:31;8.40;99.90
13123;DHT22;6627;50.920;12.050;2022-11-24T16:32:58;8.40;99.90
13123;DHT22;6627;50.920;12.050;2022-11-24T16:37:58;8.10;99.90
13123;DHT22;6627;50.920;12.050;2022-11-24T16:40:26;8.00;99.90
13123;DHT22;6627;50.920;12.050;2022-11-24T16:42:53;7.90;99.90
13123;DHT22;6627;50.920;12.050;2022-11-24T16:47:50;7.90;99.90
13123;DHT22;6627;50.920;12.050;2022-11-24T16:52:46;7.70;99.90
13123;DHT22;6627;50.920;12.050;2022-11-24T16:55:13;7.60;99.90
13123;DHT22;6627;50.920;12.050;2022-11-24T16:57:42;7.40;99.90
13123;DHT22;6627;50.920;12.050;2022-11-24T17:00:10;7.20;99.90
13123;DHT22;6627;50.920;12.050;2022-11-24T17:02:38;7.20;99.90
13123;DHT22;6627;50.920;12.050;2022-11-24T17:07:33;6.90;99.90
13123;DHT22;6627;50.920;12.050;2022-11-24T17:10:02;6.80;99.90
13123;DHT22;6627;50.920;12.050;2022-11-24T17:12:30;6.80;99.90
13123;DHT22;6627;50.920;12.050;2022-11-24T17:15:00;6.60;99.90
13123;DHT22;6627;50.920;12.050;2022-11-24T17:17:27;6.50;99.90
13123;DHT22;6627;50.920;12.050;2022-11-24T17:19:55;6.40;99.90
13123;DHT22;6627;50.920;12.050;2022-11-24T17:22:22;6.30;99.90
13123;DHT22;6627;50.920;12.050;2022-11-24T17:24:49;6.30;99.90
13123;DHT22;6627;50.920;12.050;2022-11-24T17:27:18;6.00;99.90
13123;DHT22;6627;50.920;12.050;2022-11-24T17:29:45;6.00;99.90
13123;DHT22;6627;50.920;12.050;2022-11-24T17:32:12;5.90;99.90
13123;DHT22;6627;50.920;12.050;2022-11-24T17:34:40;6.00;99.90
13123;DHT22;6627;50.920;12.050;2022-11-24T17:37:08;6.00;99.90